Time;durP1;ratioP1;P1;durP2;ratioP2;P2;SDS_P1;SDS_P2;PMS_P1;PMS_P2;Temp;Humidity;BMP_temperature;BMP_pressure;BME280_temperature;BME280_humidity;BME280_pressure;Samples;Min_cycle;Max_cycle;Signal;HPM_P1;HPM_P2
2021/01/07 00:01:49;;;;;;;6.10;4.83;;;3.10;99.90;;;;;;5024074;28;20979;-61
2021/01/07 00:04:34;;;;;;;6.30;4.80;;;3.20;99.90;;;;;;5028984;28;20602;-60
2021/01/07 00:07:18;;;;;;;5.63;4.63;;;3.20;99.90;;;;;;5032705;28;20676;-61
2021/01/07 00:10:04;;;;;;;6.23;5.50;;;3.30;99.90;;;;;;5031551;28;20645;-60
2021/01/07 00:12:49;;;;;;;5.70;5.10;;;3.30;99.90;;;;;;5020340;28;20955;-61
2021/01/07 00:15:34;;;;;;;6.50;5.80;;;3.20;99.90;;;;;;5031417;28;20610;-62
2021/01/07 00:18:20;;;;;;;6.23;5.50;;;3.20;99.90;;;;;;5031090;28;20664;-61
2021/01/07 00:21:05;;;;;;;5.27;4.73;;;3.20;99.90;;;;;;5037554;28;20647;-61
2021/01/07 00:23:50;;;;;;;6.07;4.87;;;3.30;99.90;;;;;;5033245;28;20955;-62
2021/01/07 00:26:34;;;;;;;6.30;5.07;;;3.20;99.90;;;;;;5031609;28;20660;-61
2021/01/07 00:29:18;;;;;;;5.67;5.00;;;3.20;99.90;;;;;;5035585;28;20976;-62
2021/01/07 00:32:03;;;;;;;6.27;5.33;;;3.20;99.90;;;;;;5031357;28;20963;-62
2021/01/07 00:34:48;;;;;;;5.53;4.90;;;3.20;99.90;;;;;;5030687;28;20630;-62
2021/01/07 00:37:32;;;;;;;5.90;5.30;;;3.20;99.90;;;;;;5040218;28;21243;-61
2021/01/07 00:40:17;;;;;;;7.27;5.23;;;3.30;99.90;;;;;;5023822;28;20654;-61
2021/01/07 00:43:05;;;;;;;7.80;6.30;;;3.20;99.90;;;;;;5031590;28;20703;-61
2021/01/07 00:45:52;;;;;;;5.80;5.20;;;3.20;99.90;;;;;;5048399;28;21068;-62
2021/01/07 00:48:37;;;;;;;7.00;5.27;;;3.20;99.90;;;;;;5027475;28;21235;-61
2021/01/07 00:51:30;;;;;;;6.33;5.50;;;3.20;99.90;;;;;;5043028;28;20867;-62
2021/01/07 00:54:22;;;;;;;6.33;5.03;;;3.10;99.90;;;;;;5021809;28;20595;-61
2021/01/07 00:57:06;;;;;;;6.80;4.80;;;3.10;99.90;;;;;;5034638;28;20735;-62
2021/01/07 00:59:51;;;;;;;6.77;5.57;;;3.10;99.90;;;;;;5020816;28;20726;-60
2021/01/07 01:02:36;;;;;;;6.00;5.37;;;3.20;99.90;;;;;;5012410;28;21215;-61
2021/01/07 01:05:20;;;;;;;5.63;4.70;;;3.30;99.90;;;;;;5036113;28;20644;-61
2021/01/07 01:08:06;;;;;;;7.07;5.10;;;3.30;99.90;;;;;;5007718;28;20696;-61
2021/01/07 01:10:50;;;;;;;7.33;5.43;;;3.30;99.90;;;;;;5030998;28;20736;-61
2021/01/07 01:13:35;;;;;;;6.60;5.07;;;3.30;99.90;;;;;;5033356;28;21235;-61
2021/01/07 01:16:19;;;;;;;7.57;5.50;;;3.30;99.90;;;;;;5028309;28;20603;-61
2021/01/07 01:19:05;;;;;;;7.20;5.70;;;3.30;99.90;;;;;;5028920;23;20715;-64
2021/01/07 01:21:53;;;;;;;7.30;5.37;;;3.30;99.90;;;;;;5006345;28;20591;-67
2021/01/07 01:24:38;;;;;;;6.50;5.00;;;3.20;99.90;;;;;;5022732;28;21004;-68
2021/01/07 01:27:22;;;;;;;7.93;6.03;;;3.10;99.90;;;;;;5026822;28;20631;-67
2021/01/07 01:30:08;;;;;;;6.77;5.50;;;3.10;99.90;;;;;;4998426;28;20636;-67
2021/01/07 01:32:53;;;;;;;6.20;5.20;;;3.20;99.90;;;;;;5015841;28;20601;-68
2021/01/07 01:35:37;;;;;;;7.30;5.37;;;3.10;99.90;;;;;;5014998;28;20711;-66
2021/01/07 01:38:22;;;;;;;6.20;5.10;;;3.10;99.90;;;;;;5022770;28;20658;-65
2021/01/07 01:41:07;;;;;;;6.40;5.07;;;3.10;99.90;;;;;;5021551;28;20637;-66
2021/01/07 01:43:52;;;;;;;5.90;5.27;;;3.10;99.90;;;;;;5011831;28;21094;-66
2021/01/07 01:46:36;;;;;;;6.47;5.03;;;3.10;99.90;;;;;;5005510;28;20647;-68
2021/01/07 01:49:21;;;;;;;6.77;5.00;;;3.10;99.90;;;;;;5015402;28;20655;-67
2021/01/07 01:52:06;;;;;;;5.83;5.00;;;3.20;99.90;;;;;;4995828;28;20652;-67
2021/01/07 01:54:51;;;;;;;6.80;5.20;;;3.20;99.90;;;;;;4998946;28;20643;-68
2021/01/07 01:57:39;;;;;;;6.97;5.23;;;3.20;99.90;;;;;;5004666;28;20781;-67
2021/01/07 02:00:24;;;;;;;7.23;5.30;;;3.20;99.90;;;;;;5006611;28;20660;-68
2021/01/07 02:03:10;;;;;;;6.63;5.07;;;3.20;99.90;;;;;;4995155;28;20686;-68
2021/01/07 02:05:56;;;;;;;6.27;5.20;;;3.20;99.90;;;;;;5002451;28;21221;-67
2021/01/07 02:08:42;;;;;;;6.40;5.17;;;3.20;99.90;;;;;;5012823;28;20607;-67
2021/01/07 02:11:27;;;;;;;6.60;5.30;;;3.20;99.90;;;;;;5007777;28;20639;-66
2021/01/07 02:14:12;;;;;;;6.20;5.03;;;3.30;99.90;;;;;;5009847;28;20607;-69
2021/01/07 02:16:56;;;;;;;5.73;4.63;;;3.30;99.90;;;;;;5008963;28;21402;-67
2021/01/07 02:19:43;;;;;;;6.57;4.90;;;3.30;99.90;;;;;;5000140;28;20659;-67
2021/01/07 02:22:28;;;;;;;6.33;4.63;;;3.20;99.90;;;;;;5010290;28;20601;-65
2021/01/07 02:25:12;;;;;;;5.90;4.57;;;3.20;99.90;;;;;;4997071;28;20724;-68
2021/01/07 02:27:57;;;;;;;6.13;4.87;;;3.20;99.90;;;;;;5000838;28;20667;-65
2021/01/07 02:30:42;;;;;;;5.27;4.33;;;3.20;99.90;;;;;;5008457;28;21058;-67
2021/01/07 02:33:26;;;;;;;6.77;5.13;;;3.20;99.90;;;;;;5023235;28;20927;-65
2021/01/07 02:36:11;;;;;;;5.23;4.10;;;3.20;99.90;;;;;;5008812;28;20655;-67
2021/01/07 02:38:56;;;;;;;5.30;4.20;;;3.20;99.90;;;;;;4997880;28;20647;-66
2021/01/07 02:41:47;;;;;;;5.23;4.17;;;3.30;99.90;;;;;;5008598;28;20659;-67
2021/01/07 02:44:32;;;;;;;5.13;3.93;;;3.20;99.90;;;;;;5011873;28;20615;-64
2021/01/07 02:47:17;;;;;;;5.63;4.13;;;3.20;99.90;;;;;;5001943;28;21245;-68
2021/01/07 02:50:03;;;;;;;4.60;4.10;;;3.20;99.90;;;;;;4994837;28;21174;-67
2021/01/07 02:52:48;;;;;;;4.57;3.90;;;3.20;99.90;;;;;;5006986;28;20591;-66
2021/01/07 02:55:32;;;;;;;4.60;3.60;;;3.20;99.90;;;;;;5005877;28;20595;-69
2021/01/07 02:58:17;;;;;;;5.37;4.27;;;3.20;99.90;;;;;;5021669;28;20650;-68
2021/01/07 03:01:02;;;;;;;5.50;4.50;;;3.30;99.90;;;;;;5007754;28;21332;-67
2021/01/07 03:03:47;;;;;;;4.20;3.70;;;3.20;99.90;;;;;;4995412;28;20572;-66
2021/01/07 03:06:31;;;;;;;5.57;4.50;;;3.10;99.90;;;;;;5018747;28;20734;-67
2021/01/07 03:09:16;;;;;;;5.77;4.50;;;3.10;99.90;;;;;;5004756;28;20667;-67
2021/01/07 03:12:14;;;;;;;4.63;3.97;;;3.10;99.90;;;;;;5008408;28;20603;-68
2021/01/07 03:14:58;;;;;;;5.17;4.10;;;3.10;99.90;;;;;;5007578;28;20618;-67
2021/01/07 03:17:45;;;;;;;5.20;4.40;;;3.10;99.90;;;;;;5023510;28;20663;-65
2021/01/07 03:20:29;;;;;;;5.23;4.07;;;3.10;99.90;;;;;;4999375;28;20640;-67
2021/01/07 03:23:14;;;;;;;5.27;4.67;;;3.00;99.90;;;;;;5007852;28;20607;-68
2021/01/07 03:25:58;;;;;;;4.90;4.23;;;3.10;99.90;;;;;;5007779;28;20596;-68
2021/01/07 03:28:43;;;;;;;4.50;3.90;;;3.10;99.90;;;;;;5004854;28;20683;-66
2021/01/07 03:31:27;;;;;;;5.73;4.63;;;3.10;99.90;;;;;;5017798;28;20648;-66
2021/01/07 03:34:12;;;;;;;5.47;4.13;;;3.10;99.90;;;;;;5004234;28;20635;-67
2021/01/07 03:36:56;;;;;;;4.77;4.03;;;3.10;99.90;;;;;;4999916;28;20623;-67
2021/01/07 03:39:40;;;;;;;5.50;4.53;;;3.20;99.90;;;;;;5002532;28;21136;-67
2021/01/07 03:42:27;;;;;;;5.27;3.90;;;3.10;99.90;;;;;;4994469;28;20938;-67
2021/01/07 03:45:15;;;;;;;5.10;4.17;;;3.10;99.90;;;;;;5011459;28;20665;-67
2021/01/07 03:48:00;;;;;;;5.10;4.00;;;3.10;99.90;;;;;;5007240;28;20746;-68
2021/01/07 03:50:44;;;;;;;4.60;3.60;;;3.20;99.90;;;;;;5004189;28;20631;-67
2021/01/07 03:53:29;;;;;;;4.67;4.10;;;3.10;99.90;;;;;;5001903;28;20601;-69
2021/01/07 03:56:16;;;;;;;4.97;3.67;;;3.20;99.90;;;;;;5017914;28;20631;-67
2021/01/07 03:59:03;;;;;;;5.50;4.00;;;3.10;99.90;;;;;;4999845;28;20737;-66
2021/01/07 04:01:47;;;;;;;4.77;3.97;;;3.20;99.90;;;;;;5008804;28;20719;-67
2021/01/07 04:04:32;;;;;;;4.87;3.70;;;3.20;99.90;;;;;;5001406;28;20946;-68
2021/01/07 04:07:16;;;;;;;4.43;3.33;;;3.20;99.90;;;;;;5005031;28;20623;-67
2021/01/07 04:10:01;;;;;;;4.10;3.23;;;3.20;99.90;;;;;;5013318;28;20658;-66
2021/01/07 04:12:45;;;;;;;5.27;4.60;;;3.20;99.90;;;;;;4998414;28;20951;-67
2021/01/07 04:15:30;;;;;;;5.50;4.20;;;3.20;99.90;;;;;;4997798;28;21351;-67
2021/01/07 04:18:14;;;;;;;4.83;3.73;;;3.10;99.90;;;;;;4991372;28;20725;-67
2021/01/07 04:20:59;;;;;;;5.00;4.00;;;3.10;99.90;;;;;;5001478;28;20635;-66
2021/01/07 04:23:43;;;;;;;4.50;3.70;;;3.20;99.90;;;;;;5004306;28;20604;-67
2021/01/07 04:26:32;;;;;;;5.67;4.23;;;3.10;99.90;;;;;;5003938;28;20655;-66
2021/01/07 04:29:17;;;;;;;5.33;4.00;;;3.10;99.90;;;;;;4998406;28;21023;-65
2021/01/07 04:32:02;;;;;;;4.23;3.77;;;3.10;99.90;;;;;;5013071;28;20583;-68
2021/01/07 04:34:46;;;;;;;6.83;4.43;;;3.10;99.90;;;;;;5005380;28;20622;-66
2021/01/07 04:37:34;;;;;;;5.00;3.80;;;3.20;99.90;;;;;;5003004;28;20656;-66
2021/01/07 04:40:18;;;;;;;6.13;4.80;;;3.20;99.90;;;;;;5003049;28;21004;-67
2021/01/07 04:43:05;;;;;;;5.80;4.40;;;3.30;99.90;;;;;;5010472;28;20711;-67
2021/01/07 04:45:50;;;;;;;5.80;4.67;;;3.10;99.90;;;;;;5007507;28;20595;-66
2021/01/07 04:48:37;;;;;;;5.50;4.50;;;3.10;99.90;;;;;;5006300;28;20660;-66
2021/01/07 04:51:22;;;;;;;8.10;5.27;;;3.10;99.90;;;;;;5002792;28;20679;-67
2021/01/07 04:54:06;;;;;;;5.60;4.40;;;3.10;99.90;;;;;;4994241;28;20699;-67
2021/01/07 04:56:51;;;;;;;5.50;4.07;;;3.10;99.90;;;;;;5000994;28;20619;-67
2021/01/07 04:59:36;;;;;;;5.70;4.70;;;3.20;99.90;;;;;;4999586;28;20997;-67
2021/01/07 05:02:21;;;;;;;6.50;4.90;;;3.20;99.90;;;;;;5006112;28;20716;-67
2021/01/07 05:05:07;;;;;;;7.70;4.83;;;3.30;99.90;;;;;;4995930;28;21174;-66
2021/01/07 05:07:53;;;;;;;5.97;4.43;;;3.10;99.90;;;;;;4989323;28;20759;-65
2021/01/07 05:10:43;;;;;;;7.43;6.00;;;3.20;99.90;;;;;;5016583;28;20685;-66
2021/01/07 05:13:28;;;;;;;7.70;4.77;;;3.20;99.90;;;;;;5010631;28;20572;-67
2021/01/07 05:16:22;;;;;;;5.80;4.60;;;3.30;99.90;;;;;;5010257;28;20623;-65
2021/01/07 05:19:08;;;;;;;7.10;5.43;;;3.20;99.90;;;;;;5020426;28;20718;-67
2021/01/07 05:21:54;;;;;;;6.70;4.70;;;3.20;99.90;;;;;;5008085;28;20560;-66
2021/01/07 05:24:40;;;;;;;6.87;5.30;;;3.20;99.90;;;;;;5011716;28;21030;-67
2021/01/07 05:27:24;;;;;;;5.60;4.40;;;3.20;99.90;;;;;;5009309;28;21275;-68
2021/01/07 05:30:15;;;;;;;6.57;4.80;;;3.10;99.90;;;;;;5003720;28;20639;-65
2021/01/07 05:33:05;;;;;;;6.20;4.60;;;3.20;99.90;;;;;;5005730;28;20646;-67
2021/01/07 05:35:49;;;;;;;7.80;4.93;;;3.20;99.90;;;;;;5010059;28;20579;-67
2021/01/07 05:38:35;;;;;;;6.37;4.60;;;3.10;99.90;;;;;;5009379;28;20670;-66
2021/01/07 05:41:21;;;;;;;5.60;4.33;;;3.20;99.90;;;;;;4996956;28;20662;-67
2021/01/07 05:44:12;;;;;;;5.90;4.63;;;3.10;99.90;;;;;;5008375;28;20659;-67
2021/01/07 05:46:56;;;;;;;6.40;4.70;;;3.10;99.90;;;;;;5011203;28;20646;-65
2021/01/07 05:49:43;;;;;;;4.80;4.10;;;3.20;99.90;;;;;;5001256;28;20660;-66
2021/01/07 05:52:31;;;;;;;5.37;4.37;;;3.10;99.90;;;;;;4996316;28;20690;-66
2021/01/07 05:55:20;;;;;;;5.80;4.43;;;3.20;99.90;;;;;;5011613;28;20674;-67
2021/01/07 05:58:05;;;;;;;6.73;5.07;;;3.30;99.90;;;;;;5009333;28;20655;-66
2021/01/07 06:00:53;;;;;;;7.50;4.93;;;3.10;99.90;;;;;;5014641;28;20651;-65
2021/01/07 06:03:40;;;;;;;6.20;4.70;;;3.10;99.90;;;;;;4997503;28;20743;-67
2021/01/07 06:06:25;;;;;;;5.70;4.03;;;3.20;99.90;;;;;;5001097;28;20639;-67
2021/01/07 06:09:09;;;;;;;6.13;4.90;;;3.10;99.90;;;;;;5018107;28;20658;-64
2021/01/07 06:11:57;;;;;;;5.77;4.70;;;3.20;99.90;;;;;;5013148;28;20616;-69
2021/01/07 06:14:48;;;;;;;5.60;4.17;;;3.10;99.90;;;;;;5010411;28;20628;-66
2021/01/07 06:17:33;;;;;;;6.93;4.90;;;3.10;99.90;;;;;;5004563;28;21036;-65
2021/01/07 06:20:20;;;;;;;6.70;4.87;;;3.20;99.90;;;;;;4997710;28;20791;-66
2021/01/07 06:23:18;;;;;;;5.33;4.33;;;3.30;99.90;;;;;;5000336;28;20587;-66
2021/01/07 06:26:24;;;;;;;5.27;3.83;;;3.20;99.90;;;;;;5016799;28;20601;-66
2021/01/07 06:29:11;;;;;;;5.70;4.47;;;3.20;99.90;;;;;;4997132;28;20658;-66
2021/01/07 06:31:56;;;;;;;5.27;4.13;;;3.00;99.90;;;;;;4998687;28;20603;-67
2021/01/07 06:34:44;;;;;;;7.03;5.03;;;3.30;99.90;;;;;;4997561;28;20600;-66
2021/01/07 06:37:34;;;;;;;5.87;4.30;;;3.20;99.90;;;;;;5002603;28;20830;-65
2021/01/07 06:40:22;;;;;;;7.03;4.70;;;3.30;99.90;;;;;;4997907;28;20734;-67
2021/01/07 06:43:18;;;;;;;5.80;4.63;;;3.30;99.90;;;;;;4998044;28;21045;-66
2021/01/07 06:46:02;;;;;;;6.00;4.50;;;3.20;99.90;;;;;;4966930;28;21488;-70
2021/01/07 06:48:49;;;;;;;5.33;4.40;;;3.30;99.90;;;;;;4966090;28;20756;-72
2021/01/07 06:51:33;;;;;;;6.60;4.67;;;3.30;99.90;;;;;;4970702;28;20639;-71
2021/01/07 06:54:18;;;;;;;6.60;4.67;;;3.20;99.90;;;;;;4988574;28;21319;-72
2021/01/07 06:57:08;;;;;;;5.60;4.30;;;3.20;99.90;;;;;;4970268;28;20972;-70
2021/01/07 07:00:04;;;;;;;5.73;3.87;;;3.20;99.90;;;;;;4981552;28;20643;-73
2021/01/07 07:03:11;;;;;;;5.37;4.03;;;3.30;99.90;;;;;;4957692;28;20675;-71
2021/01/07 07:05:59;;;;;;;7.47;4.70;;;3.20;99.90;;;;;;4938226;28;20616;-71
2021/01/07 07:08:48;;;;;;;5.07;4.33;;;3.20;99.90;;;;;;4963472;28;20671;-72
2021/01/07 07:11:34;;;;;;;6.00;4.13;;;3.20;99.90;;;;;;4988700;28;20636;-70
2021/01/07 07:14:20;;;;;;;4.93;3.67;;;3.10;99.90;;;;;;4996352;28;20632;-69
2021/01/07 07:17:07;;;;;;;5.63;4.57;;;3.10;99.90;;;;;;4990389;28;20608;-69
2021/01/07 07:19:53;;;;;;;5.87;4.40;;;3.10;99.90;;;;;;5003818;23;21324;-62
2021/01/07 07:22:42;;;;;;;5.27;4.33;;;3.10;99.90;;;;;;4987449;28;20927;-62
2021/01/07 07:25:27;;;;;;;4.97;4.20;;;3.20;99.90;;;;;;4970074;28;20839;-64
2021/01/07 07:28:12;;;;;;;5.50;4.60;;;3.30;99.90;;;;;;4957718;28;20688;-64
2021/01/07 07:30:57;;;;;;;6.07;4.53;;;3.30;99.90;;;;;;4975884;28;21056;-63
2021/01/07 07:33:42;;;;;;;6.00;4.70;;;3.20;99.90;;;;;;4988158;28;20728;-66
2021/01/07 07:36:34;;;;;;;7.10;4.87;;;3.20;99.90;;;;;;4992594;28;21221;-67
2021/01/07 07:39:19;;;;;;;6.63;4.90;;;3.10;99.90;;;;;;4975946;28;20670;-62
2021/01/07 07:42:09;;;;;;;5.57;4.10;;;3.20;99.90;;;;;;4987139;28;20981;-63
2021/01/07 07:44:55;;;;;;;7.37;4.80;;;3.30;99.90;;;;;;4986714;28;20624;-62
2021/01/07 07:47:39;;;;;;;6.07;4.47;;;3.20;99.90;;;;;;4985817;28;20725;-61
2021/01/07 07:50:28;;;;;;;6.20;5.00;;;3.20;99.90;;;;;;4985012;28;21020;-62
2021/01/07 07:53:14;;;;;;;6.60;5.17;;;3.30;99.90;;;;;;4989849;28;20778;-62
2021/01/07 07:55:58;;;;;;;8.63;4.93;;;3.20;99.90;;;;;;4982908;28;20639;-62
2021/01/07 07:58:43;;;;;;;5.30;4.20;;;3.30;99.90;;;;;;4979103;28;20667;-66
2021/01/07 08:01:37;;;;;;;7.63;4.87;;;3.20;99.90;;;;;;4987597;28;20655;-65
2021/01/07 08:04:26;;;;;;;7.60;5.67;;;3.30;99.90;;;;;;4978703;28;20589;-62
2021/01/07 08:07:11;;;;;;;7.47;4.60;;;3.30;99.90;;;;;;4988837;28;20686;-62
2021/01/07 08:10:05;;;;;;;7.63;5.40;;;3.30;99.90;;;;;;4976750;28;20699;-64
2021/01/07 08:12:53;;;;;;;5.77;4.40;;;3.40;99.90;;;;;;4974827;28;20615;-62
2021/01/07 08:15:45;;;;;;;7.93;5.90;;;3.40;99.90;;;;;;4976069;28;20619;-62
2021/01/07 08:18:30;;;;;;;6.47;5.20;;;3.30;99.90;;;;;;4975290;28;21051;-63
2021/01/07 08:21:16;;;;;;;6.60;5.00;;;3.30;99.90;;;;;;4983351;28;21055;-63
2021/01/07 08:24:11;;;;;;;7.10;5.20;;;3.30;99.90;;;;;;5000851;28;20642;-63
2021/01/07 08:27:07;;;;;;;6.57;4.80;;;3.30;99.90;;;;;;5006725;28;20663;-63
2021/01/07 08:29:58;;;;;;;6.47;5.33;;;3.30;99.90;;;;;;4965442;28;20627;-63
2021/01/07 08:32:47;;;;;;;7.10;5.90;;;3.40;99.90;;;;;;4978493;28;20642;-65
2021/01/07 08:35:32;;;;;;;7.07;5.20;;;3.50;99.90;;;;;;4991535;28;20611;-62
2021/01/07 08:38:29;;;;;;;7.17;5.10;;;3.40;99.90;;;;;;4975914;28;20999;-62
2021/01/07 08:41:20;;;;;;;8.87;6.13;;;3.20;99.90;;;;;;4980243;28;20891;-63
2021/01/07 08:44:07;;;;;;;6.73;5.80;;;3.20;99.90;;;;;;4975755;28;20659;-62
2021/01/07 08:46:53;;;;;;;6.90;5.30;;;3.10;99.90;;;;;;4981493;28;21229;-63
2021/01/07 08:49:37;;;;;;;8.30;6.23;;;3.20;99.90;;;;;;4990045;28;20733;-62
2021/01/07 08:52:22;;;;;;;6.97;5.30;;;3.20;99.90;;;;;;4981651;28;21308;-63
2021/01/07 08:55:07;;;;;;;7.90;5.83;;;3.20;99.90;;;;;;4991061;28;20799;-62
2021/01/07 08:58:02;;;;;;;8.30;5.90;;;3.30;99.90;;;;;;4980603;28;21064;-62
2021/01/07 09:00:48;;;;;;;8.23;5.13;;;3.20;99.90;;;;;;4978651;28;20650;-65
2021/01/07 09:03:37;;;;;;;6.30;5.27;;;3.40;99.90;;;;;;4984814;28;20616;-64
2021/01/07 09:06:22;;;;;;;7.17;5.40;;;3.40;99.90;;;;;;4978899;28;21518;-62
2021/01/07 09:09:12;;;;;;;8.20;6.40;;;3.40;99.90;;;;;;4975178;28;20763;-63
2021/01/07 09:12:30;;;;;;;8.00;5.60;;;3.50;99.90;;;;;;4969607;28;20631;-64
2021/01/07 09:15:25;;;;;;;7.07;5.27;;;3.50;99.90;;;;;;4977025;28;20607;-65
2021/01/07 09:18:13;;;;;;;6.77;5.40;;;3.50;99.90;;;;;;4957115;28;20678;-63
2021/01/07 09:20:57;;;;;;;7.80;5.80;;;3.50;99.90;;;;;;4975654;28;20718;-64
2021/01/07 09:23:47;;;;;;;6.60;5.20;;;3.50;99.90;;;;;;4973133;28;21304;-65
2021/01/07 09:26:32;;;;;;;9.47;6.37;;;3.50;99.90;;;;;;4987536;28;20651;-63
2021/01/07 09:29:16;;;;;;;7.30;5.43;;;3.50;99.90;;;;;;4974054;28;20724;-63
2021/01/07 09:32:01;;;;;;;6.90;5.57;;;3.70;99.90;;;;;;4967377;28;20599;-65
2021/01/07 09:34:46;;;;;;;7.63;5.17;;;3.70;99.90;;;;;;4980041;28;20639;-62
2021/01/07 09:37:34;;;;;;;8.00;5.90;;;3.70;99.90;;;;;;4970782;28;20631;-65
2021/01/07 09:40:19;;;;;;;7.93;5.33;;;3.50;99.90;;;;;;4995315;28;20725;-62
2021/01/07 09:43:04;;;;;;;8.13;6.00;;;3.40;99.90;;;;;;4992197;28;20639;-62
2021/01/07 09:45:48;;;;;;;6.70;5.13;;;3.40;99.90;;;;;;4977115;28;20593;-62
2021/01/07 09:48:33;;;;;;;7.90;5.90;;;3.50;99.90;;;;;;4991652;28;20658;-63
2021/01/07 09:51:17;;;;;;;8.10;5.40;;;3.60;99.90;;;;;;4992632;28;20630;-64
2021/01/07 09:54:02;;;;;;;7.17;4.80;;;3.50;99.90;;;;;;4989429;28;20631;-63
2021/01/07 09:56:52;;;;;;;7.20;5.10;;;3.50;99.90;;;;;;4992380;28;20627;-62
2021/01/07 09:59:37;;;;;;;9.17;5.97;;;3.60;99.90;;;;;;4979500;28;20662;-63
2021/01/07 10:02:21;;;;;;;7.90;5.50;;;3.50;99.90;;;;;;4991789;28;20682;-62
2021/01/07 10:05:07;;;;;;;7.77;5.47;;;3.50;99.90;;;;;;4991374;28;21475;-62
2021/01/07 10:07:52;;;;;;;6.53;5.10;;;3.60;99.90;;;;;;4997305;28;20772;-63
2021/01/07 10:10:36;;;;;;;6.80;6.00;;;3.60;99.90;;;;;;4987881;28;20668;-62
2021/01/07 10:13:21;;;;;;;8.00;5.27;;;3.70;99.90;;;;;;4992983;28;20631;-62
2021/01/07 10:16:09;;;;;;;6.40;5.17;;;3.60;99.90;;;;;;4976811;28;20950;-62
2021/01/07 10:18:54;;;;;;;5.20;4.30;;;3.60;99.90;;;;;;4977458;28;20658;-62
2021/01/07 10:21:40;;;;;;;5.27;4.63;;;3.70;99.90;;;;;;4978205;28;20613;-62
2021/01/07 10:24:25;;;;;;;6.07;4.50;;;3.70;99.90;;;;;;4994212;28;20848;-65
2021/01/07 10:27:11;;;;;;;7.43;5.07;;;3.60;99.90;;;;;;4991281;28;20588;-66
2021/01/07 10:29:58;;;;;;;5.70;4.20;;;3.60;99.90;;;;;;4981599;28;20654;-63
2021/01/07 10:32:43;;;;;;;7.00;4.97;;;3.70;99.90;;;;;;4973056;28;21079;-60
2021/01/07 10:35:28;;;;;;;5.90;4.50;;;3.70;99.90;;;;;;4997332;28;20620;-59
2021/01/07 10:38:20;;;;;;;6.07;4.50;;;3.70;99.90;;;;;;4993558;28;20718;-60
2021/01/07 10:41:07;;;;;;;5.97;4.70;;;3.70;99.90;;;;;;4996023;28;21001;-59
2021/01/07 10:43:54;;;;;;;6.10;5.07;;;3.60;99.90;;;;;;4992052;28;20800;-60
2021/01/07 10:46:42;;;;;;;4.93;4.13;;;3.50;99.90;;;;;;4980226;28;20995;-60
2021/01/07 10:49:28;;;;;;;7.87;4.67;;;3.70;99.90;;;;;;4980509;28;20659;-60
2021/01/07 10:52:37;;;;;;;4.83;4.30;;;3.70;99.90;;;;;;4978852;28;20723;-61
2021/01/07 10:55:29;;;;;;;5.53;4.10;;;3.60;99.90;;;;;;4983552;28;21301;-60
2021/01/07 10:58:19;;;;;;;7.17;5.10;;;3.50;99.90;;;;;;4974863;28;20650;-60
2021/01/07 11:01:28;;;;;;;4.67;3.73;;;3.50;99.90;;;;;;4978499;28;20988;-62
2021/01/07 11:04:45;;;;;;;6.10;4.30;;;3.60;99.90;;;;;;4999287;28;20770;-61
2021/01/07 11:07:39;;;;;;;5.13;4.20;;;3.80;99.90;;;;;;4987891;28;20651;-60
2021/01/07 11:10:25;;;;;;;6.27;4.80;;;3.70;99.90;;;;;;4975076;28;21010;-59
2021/01/07 11:13:10;;;;;;;5.20;4.27;;;3.70;99.90;;;;;;4971916;28;20803;-60
2021/01/07 11:15:57;;;;;;;4.53;3.90;;;3.80;99.90;;;;;;4985977;28;20642;-59
2021/01/07 11:18:47;;;;;;;5.20;3.93;;;3.80;99.90;;;;;;4992086;28;21447;-63
2021/01/07 11:21:35;;;;;;;5.13;4.20;;;3.70;99.90;;;;;;4979029;28;20668;-60
2021/01/07 18:09:41;;;;;;;9.20;7.27;;;3.70;99.90;;;;;;5813971;23;20697;-71
2021/01/07 18:12:28;;;;;;;7.80;6.53;;;3.70;99.90;;;;;;4963366;28;20636;-64
2021/01/07 18:15:12;;;;;;;8.70;6.50;;;3.90;99.90;;;;;;4965616;28;20760;-66
2021/01/07 18:17:56;;;;;;;7.43;5.93;;;3.90;99.90;;;;;;4967034;28;20629;-66
2021/01/07 18:20:41;;;;;;;8.53;6.43;;;3.80;99.90;;;;;;4948449;28;20654;-66
2021/01/07 18:23:26;;;;;;;9.87;7.50;;;3.80;99.90;;;;;;4941127;28;20647;-64
2021/01/07 18:26:11;;;;;;;7.27;6.30;;;3.70;99.90;;;;;;4939491;28;20686;-64
2021/01/07 18:28:58;;;;;;;9.80;6.83;;;3.60;99.90;;;;;;4917037;28;21231;-64
2021/01/07 18:31:43;;;;;;;8.30;5.90;;;3.60;99.90;;;;;;4868118;28;20995;-64
2021/01/07 18:34:28;;;;;;;9.20;6.50;;;3.80;99.90;;;;;;4866718;28;20669;-64
2021/01/07 18:37:13;;;;;;;8.13;6.23;;;3.80;99.90;;;;;;4862820;28;20771;-64
2021/01/07 18:39:57;;;;;;;8.07;5.97;;;3.70;99.90;;;;;;4864927;28;20629;-64
2021/01/07 18:42:41;;;;;;;7.83;6.70;;;3.70;99.90;;;;;;4875128;28;21242;-64
2021/01/07 18:45:26;;;;;;;6.90;5.60;;;3.60;99.90;;;;;;4876693;28;20630;-65
2021/01/07 18:48:12;;;;;;;8.00;6.27;;;3.70;99.90;;;;;;4868192;28;20639;-64
2021/01/07 18:50:57;;;;;;;9.37;6.83;;;3.80;99.90;;;;;;4863977;28;20753;-63
2021/01/07 18:53:42;;;;;;;7.40;5.83;;;3.80;99.90;;;;;;4866067;28;20646;-64
2021/01/07 18:56:26;;;;;;;8.10;6.40;;;3.70;99.90;;;;;;4865972;28;20610;-63
2021/01/07 18:59:11;;;;;;;9.40;6.97;;;3.60;99.90;;;;;;4867058;28;20629;-64
2021/01/07 19:01:55;;;;;;;8.27;6.87;;;3.60;99.90;;;;;;4865528;28;20777;-64
2021/01/07 19:04:43;;;;;;;7.87;6.50;;;3.60;99.90;;;;;;4869342;28;20846;-64
2021/01/07 19:07:28;;;;;;;6.80;5.83;;;3.60;99.90;;;;;;4856735;28;20629;-64
2021/01/07 19:10:12;;;;;;;8.87;6.30;;;3.60;99.90;;;;;;4864662;28;20980;-64
2021/01/07 19:12:57;;;;;;;6.63;5.57;;;3.70;99.90;;;;;;4875017;28;20634;-64
2021/01/07 19:15:41;;;;;;;6.97;5.60;;;3.70;99.90;;;;;;4864857;28;20670;-64
2021/01/07 19:18:26;;;;;;;7.40;6.20;;;3.70;99.90;;;;;;4867717;28;20685;-64
2021/01/07 19:21:11;;;;;;;7.53;6.20;;;3.70;99.90;;;;;;4863269;28;20701;-64
2021/01/07 19:23:55;;;;;;;7.87;5.73;;;3.80;99.90;;;;;;4864108;28;20782;-64
2021/01/07 19:26:40;;;;;;;7.70;6.10;;;3.80;99.90;;;;;;4865411;28;20637;-64
2021/01/07 19:29:26;;;;;;;8.13;5.53;;;3.80;99.90;;;;;;4858244;28;21641;-64
2021/01/07 19:32:13;;;;;;;9.90;6.60;;;3.90;99.90;;;;;;4863719;28;20625;-64
2021/01/07 19:34:58;;;;;;;6.10;5.50;;;3.90;99.90;;;;;;4871701;28;20618;-64
2021/01/07 19:37:45;;;;;;;6.77;5.90;;;3.90;99.90;;;;;;4879670;28;20758;-64
2021/01/07 19:40:30;;;;;;;7.17;6.10;;;3.90;99.90;;;;;;4867559;28;20646;-64
2021/01/07 19:43:14;;;;;;;7.17;6.10;;;3.80;99.90;;;;;;4867009;28;20697;-63
2021/01/07 19:45:59;;;;;;;7.70;6.50;;;3.80;99.90;;;;;;4862660;28;20972;-64
2021/01/07 19:48:43;;;;;;;7.13;6.33;;;3.70;99.90;;;;;;4872066;28;21243;-64
2021/01/07 19:51:28;;;;;;;6.17;5.57;;;3.80;99.90;;;;;;4876190;28;21122;-64
2021/01/07 19:54:13;;;;;;;7.10;6.37;;;3.80;99.90;;;;;;4873005;28;20663;-64
2021/01/07 19:57:02;;;;;;;6.93;6.23;;;3.70;99.90;;;;;;4873608;28;20692;-64
2021/01/07 19:59:47;;;;;;;6.90;6.20;;;3.70;99.90;;;;;;4867213;28;20669;-64
2021/01/07 20:02:33;;;;;;;6.57;5.87;;;3.70;99.90;;;;;;4866227;28;20745;-63
2021/01/07 20:05:19;;;;;;;6.63;5.93;;;3.80;99.90;;;;;;4863492;28;20694;-63
2021/01/07 20:08:04;;;;;;;7.83;6.30;;;3.80;99.90;;;;;;4864868;28;20606;-63
2021/01/07 20:10:49;;;;;;;6.63;5.50;;;3.80;99.90;;;;;;4923286;28;20680;-64
2021/01/07 20:13:34;;;;;;;8.13;6.60;;;3.70;99.90;;;;;;4871340;28;20650;-64
2021/01/07 20:16:19;;;;;;;7.30;5.90;;;3.70;99.90;;;;;;4876139;28;21171;-64
2021/01/07 20:19:08;;;;;;;6.40;5.20;;;3.70;99.90;;;;;;4863385;28;20587;-64
2021/01/07 20:21:52;;;;;;;7.47;6.10;;;3.70;99.90;;;;;;4867677;28;21057;-63
2021/01/07 20:24:37;;;;;;;6.60;5.77;;;3.60;99.90;;;;;;4867217;28;20856;-63
2021/01/07 20:27:21;;;;;;;6.73;5.90;;;3.70;99.90;;;;;;4860305;28;20595;-63
2021/01/07 20:30:07;;;;;;;7.20;6.37;;;3.80;99.90;;;;;;4874268;28;20685;-63
2021/01/07 20:32:53;;;;;;;8.50;6.60;;;3.70;99.90;;;;;;4880097;28;20654;-63
2021/01/07 20:35:37;;;;;;;7.43;6.63;;;3.80;99.90;;;;;;4868850;28;20603;-63
2021/01/07 20:38:22;;;;;;;7.47;5.70;;;3.80;99.90;;;;;;4868615;28;20599;-63
2021/01/07 20:41:07;;;;;;;7.90;6.47;;;3.70;99.90;;;;;;4925446;28;20682;-62
2021/01/07 20:43:52;;;;;;;8.37;6.40;;;3.70;99.90;;;;;;4869139;28;21294;-63
2021/01/07 20:46:39;;;;;;;8.40;7.03;;;3.70;99.90;;;;;;4872532;28;20642;-63
2021/01/07 20:49:26;;;;;;;9.17;7.23;;;3.60;99.90;;;;;;4876651;28;20690;-63
2021/01/07 20:52:11;;;;;;;9.20;6.60;;;3.70;99.90;;;;;;4915528;28;20666;-63
2021/01/07 20:54:56;;;;;;;7.57;6.27;;;3.70;99.90;;;;;;4891501;28;20593;-63
2021/01/07 20:57:44;;;;;;;8.40;7.37;;;3.70;99.90;;;;;;4876238;28;20610;-63
2021/01/07 21:00:31;;;;;;;9.03;6.20;;;3.70;99.90;;;;;;4871091;28;21246;-63
2021/01/07 21:03:16;;;;;;;7.60;6.30;;;3.80;99.90;;;;;;4865513;28;20740;-63
2021/01/07 21:06:03;;;;;;;8.23;6.50;;;3.80;99.90;;;;;;4861658;29;21279;-63
2021/01/07 21:08:47;;;;;;;9.23;6.87;;;3.70;99.90;;;;;;4851726;29;20634;-63
2021/01/07 21:11:34;;;;;;;8.23;6.70;;;3.70;99.90;;;;;;4865356;28;20689;-63
2021/01/07 21:14:19;;;;;;;8.33;6.70;;;3.70;99.90;;;;;;4867931;28;20654;-63
2021/01/07 21:17:03;;;;;;;7.27;6.30;;;3.60;99.90;;;;;;4846228;29;20614;-62
2021/01/07 21:19:48;;;;;;;8.20;6.00;;;3.60;99.90;;;;;;4869013;28;21221;-63
2021/01/07 21:22:32;;;;;;;8.10;6.23;;;3.60;99.90;;;;;;4873828;28;20685;-63
2021/01/07 21:25:17;;;;;;;8.60;7.30;;;3.80;99.90;;;;;;4868353;28;21173;-63